createdAt,value
2022-08-22T00:00:45.967Z,86.99
2022-08-22T00:02:44.020Z,86.55
2022-08-22T00:02:57.071Z,85.02
2022-08-22T00:02:59.457Z,80.65
2022-08-22T00:03:40.531Z,91.48
2022-08-22T00:06:15.492Z,87.19
2022-08-22T00:09:00.561Z,87.21
2022-08-22T00:11:58.134Z,88.31
2022-08-22T00:14:30.932Z,84.67
2022-08-22T00:17:17.453Z,84.81
2022-08-22T00:20:02.420Z,89.25
2022-08-22T00:22:40.102Z,87.74
2022-08-22T00:25:28.424Z,88.67
2022-08-22T00:28:00.559Z,85.45
2022-08-22T00:30:28.478Z,84.65
2022-08-22T00:32:59.984Z,85.81
2022-08-22T00:35:36.807Z,88.72
2022-08-22T00:38:08.760Z,85.81
2022-08-22T00:40:50.437Z,86.26
2022-08-22T00:43:50.548Z,85.57
2022-08-22T00:46:41.938Z,84.16
2022-08-22T00:49:57.037Z,84.21
2022-08-22T00:52:26.679Z,85.48
2022-08-22T00:55:17.647Z,87.00
2022-08-22T00:57:52.063Z,83.87
2022-08-22T01:00:29.673Z,83.31
2022-08-22T01:03:23.538Z,85.17
2022-08-22T01:06:04.715Z,86.47
2022-08-22T01:08:40.721Z,84.58
2022-08-22T01:11:31.141Z,85.60
2022-08-22T01:14:16.756Z,85.62
2022-08-22T01:17:21.872Z,87.14
2022-08-22T01:20:22.915Z,87.67
2022-08-22T01:23:04.889Z,88.05
2022-08-22T01:25:50.953Z,91.39
2022-08-22T01:28:36.288Z,85.95
2022-08-22T01:31:30.121Z,84.31
2022-08-22T01:34:26.389Z,84.60
2022-08-22T01:37:11.787Z,84.29
2022-08-22T01:40:22.439Z,82.54
2022-08-22T01:43:13.511Z,85.48
2022-08-22T01:46:09.431Z,91.03
2022-08-22T01:48:52.670Z,91.71
2022-08-22T01:51:28.659Z,88.49
2022-08-22T01:54:04.503Z,88.22
2022-08-22T01:56:49.750Z,86.76
2022-08-22T01:59:34.101Z,93.24
2022-08-22T02:02:38.934Z,94.73
2022-08-22T02:05:47.019Z,88.86
2022-08-22T02:08:30.875Z,89.91
2022-08-22T02:11:04.394Z,90.64
2022-08-22T02:13:42.684Z,90.76
2022-08-22T02:16:15.097Z,88.18
2022-08-22T02:18:57.813Z,91.70
2022-08-22T02:21:33.319Z,91.66
2022-08-22T02:24:37.431Z,90.49
2022-08-22T02:27:57.598Z,91.11
2022-08-22T02:31:06.397Z,85.70
2022-08-22T02:33:49.470Z,91.75
2022-08-22T02:36:25.267Z,92.03
2022-08-22T02:39:04.216Z,90.50
2022-08-22T02:41:57.151Z,93.28
2022-08-22T02:45:00.274Z,90.85
2022-08-22T02:47:36.093Z,92.86
2022-08-22T02:50:12.983Z,93.83
2022-08-22T02:52:58.391Z,91.48
2022-08-22T02:55:44.225Z,91.44
2022-08-22T02:58:36.970Z,89.15
2022-08-22T03:01:03.860Z,86.27
2022-08-22T03:03:39.661Z,87.28
2022-08-22T03:06:28.363Z,88.17
2022-08-22T03:09:16.974Z,87.19
2022-08-22T03:11:50.954Z,85.11
2022-08-22T03:14:32.923Z,83.47
2022-08-22T03:17:22.947Z,84.09
2022-08-22T03:20:06.540Z,83.66
2022-08-22T03:23:08.020Z,82.99
2022-08-22T03:25:56.840Z,82.45
2022-08-22T03:28:59.349Z,82.40
2022-08-22T03:31:28.669Z,81.31
2022-08-22T03:34:21.551Z,81.08
2022-08-22T03:37:03.188Z,86.63
2022-08-22T03:40:02.528Z,89.31
2022-08-22T03:42:36.211Z,87.84
2022-08-22T03:45:28.420Z,87.39
2022-08-22T03:47:58.977Z,88.09
2022-08-22T03:50:57.051Z,86.55
2022-08-22T03:54:08.244Z,86.75
2022-08-22T03:56:54.073Z,86.04
2022-08-22T03:59:28.712Z,87.11
2022-08-22T04:02:42.836Z,84.63
2022-08-22T04:05:28.997Z,86.59
2022-08-22T04:08:14.678Z,87.23
2022-08-22T04:11:21.586Z,84.40
2022-08-22T04:14:16.288Z,84.53
2022-08-22T04:17:25.652Z,84.17
2022-08-22T04:19:55.693Z,82.19
2022-08-22T04:23:03.648Z,85.35
2022-08-22T04:25:46.135Z,83.17
2022-08-22T04:28:24.681Z,84.50
2022-08-22T04:31:21.834Z,79.74
2022-08-22T04:34:12.125Z,84.24
2022-08-22T04:36:46.221Z,82.93
2022-08-22T04:39:34.962Z,86.08
2022-08-22T04:42:31.879Z,84.72
2022-08-22T04:45:20.477Z,85.76
2022-08-22T04:48:02.781Z,84.56
2022-08-22T04:50:41.211Z,83.87
2022-08-22T04:53:37.762Z,85.71
2022-08-22T04:56:31.201Z,84.14
2022-08-22T04:59:00.785Z,82.39
2022-08-22T05:02:07.870Z,83.71
2022-08-22T05:04:51.330Z,80.67
2022-08-22T05:07:24.836Z,79.70
2022-08-22T05:10:12.328Z,77.12
2022-08-22T05:12:53.359Z,78.25
2022-08-22T05:15:23.565Z,74.76
2022-08-22T05:17:52.112Z,75.93
2022-08-22T05:20:22.287Z,79.76
2022-08-22T05:22:54.212Z,77.78
2022-08-22T05:25:26.728Z,78.45
2022-08-22T05:28:13.951Z,79.01
2022-08-22T05:30:41.364Z,76.20
2022-08-22T05:33:17.117Z,83.04
2022-08-22T05:35:55.822Z,82.31
2022-08-22T05:38:29.669Z,80.62
2022-08-22T05:41:11.819Z,78.88
2022-08-22T05:43:42.314Z,81.18
2022-08-22T05:46:17.161Z,79.77
2022-08-22T05:48:51.436Z,80.80
2022-08-22T05:51:22.322Z,82.91
2022-08-22T05:53:54.012Z,84.31
2022-08-22T05:56:46.173Z,82.52
2022-08-22T05:59:26.887Z,85.65
2022-08-22T06:02:00.211Z,87.40
2022-08-22T06:04:45.427Z,86.61
2022-08-22T06:07:22.156Z,88.82
2022-08-22T06:09:49.237Z,87.08
2022-08-22T06:12:31.095Z,85.86
2022-08-22T06:15:23.755Z,85.88
2022-08-22T06:17:57.120Z,87.05
2022-08-22T06:20:32.488Z,82.88
2022-08-22T06:23:01.558Z,82.91
2022-08-22T06:25:36.238Z,80.71
2022-08-22T06:28:09.969Z,82.61
2022-08-22T06:30:38.179Z,82.84
2022-08-22T06:33:12.541Z,83.71
2022-08-22T06:36:00.225Z,83.84
2022-08-22T06:38:33.437Z,83.24
2022-08-22T06:41:03.871Z,85.72
2022-08-22T06:43:38.532Z,86.01
2022-08-22T06:46:06.702Z,86.31
2022-08-22T06:48:58.135Z,84.63
2022-08-22T06:51:28.920Z,82.94
2022-08-22T06:54:01.049Z,85.65
2022-08-22T06:56:39.528Z,86.95
2022-08-22T06:59:12.912Z,86.73
2022-08-22T07:02:08.253Z,85.29
2022-08-22T07:04:35.306Z,83.19
2022-08-22T07:07:02.823Z,83.98
2022-08-22T07:09:35.013Z,83.23
2022-08-22T07:12:05.234Z,87.07
2022-08-22T07:14:39.637Z,86.60
2022-08-22T07:17:09.474Z,89.70
2022-08-22T07:19:39.547Z,86.01
2022-08-22T07:22:22.017Z,83.00
2022-08-22T07:24:52.802Z,84.39
2022-08-22T07:27:43.927Z,85.77
2022-08-22T07:30:27.668Z,86.70
2022-08-22T07:33:23.661Z,84.95
2022-08-22T07:36:32.038Z,84.86
2022-08-22T07:39:02.175Z,86.14
2022-08-22T07:41:58.211Z,86.13
2022-08-22T07:44:30.048Z,84.43
2022-08-22T07:47:00.853Z,81.51
2022-08-22T07:49:34.719Z,79.62
2022-08-22T07:52:08.434Z,82.16
2022-08-22T07:54:41.636Z,83.46
2022-08-22T07:57:12.814Z,80.32
2022-08-22T07:59:47.136Z,81.20
2022-08-22T08:02:16.098Z,81.14
2022-08-22T08:04:43.412Z,82.33
2022-08-22T08:07:14.421Z,84.10
2022-08-22T08:09:44.871Z,83.12
2022-08-22T08:12:12.581Z,80.78
2022-08-22T08:14:41.476Z,82.85
2022-08-22T08:17:13.934Z,79.61
2022-08-22T08:19:42.707Z,80.85
2022-08-22T08:22:15.733Z,83.25
2022-08-22T08:24:45.233Z,79.25
2022-08-22T08:27:39.538Z,82.43
2022-08-22T08:30:26.815Z,82.08
2022-08-22T08:33:25.013Z,82.92
2022-08-22T08:36:02.326Z,80.97
2022-08-22T08:38:37.335Z,85.22
2022-08-22T08:41:50.582Z,82.44
2022-08-22T08:44:50.371Z,85.42
2022-08-22T08:47:29.133Z,79.48
2022-08-22T08:50:08.029Z,78.67
2022-08-22T08:53:01.967Z,76.24
2022-08-22T08:55:47.519Z,82.37
2022-08-22T08:58:33.092Z,78.21
2022-08-22T09:01:14.134Z,75.23
2022-08-22T09:04:16.829Z,77.88
2022-08-22T09:07:36.292Z,76.92
2022-08-22T09:10:16.770Z,76.20
2022-08-22T09:13:21.327Z,77.84
2022-08-22T09:16:26.207Z,79.64
2022-08-22T09:19:06.706Z,75.94
2022-08-22T09:21:44.704Z,73.61
2022-08-22T09:24:11.557Z,73.39
2022-08-22T09:26:50.991Z,72.05
2022-08-22T09:29:54.496Z,75.61
2022-08-22T09:32:42.405Z,80.37
2022-08-22T09:35:31.251Z,82.57
2022-08-22T09:38:08.235Z,77.44
2022-08-22T09:41:00.103Z,75.79
2022-08-22T09:43:44.134Z,78.27
2022-08-22T09:46:20.856Z,79.49
2022-08-22T09:49:00.820Z,78.07
2022-08-22T09:51:34.809Z,78.06
2022-08-22T09:54:13.260Z,74.71
2022-08-22T09:56:57.724Z,76.29
2022-08-22T09:59:33.796Z,74.97
2022-08-22T10:02:19.795Z,75.16
2022-08-22T10:04:58.181Z,75.78
2022-08-22T10:07:28.129Z,75.53
2022-08-22T10:10:26.773Z,78.25
2022-08-22T10:13:22.639Z,74.96
2022-08-22T10:15:57.558Z,74.02
2022-08-22T10:18:43.979Z,72.31
2022-08-22T10:21:25.748Z,75.29
2022-08-22T10:24:12.362Z,76.72
2022-08-22T10:26:58.646Z,71.95
2022-08-22T10:29:46.174Z,75.49
2022-08-22T10:32:27.098Z,74.20
2022-08-22T10:34:58.617Z,76.29
2022-08-22T10:37:36.836Z,74.80
2022-08-22T10:40:28.487Z,76.18
2022-08-22T10:43:13.268Z,75.28
2022-08-22T10:45:44.538Z,78.67
2022-08-22T10:48:11.383Z,77.42
2022-08-22T10:50:50.939Z,81.24
2022-08-22T10:53:34.862Z,81.60
2022-08-22T10:56:09.056Z,80.92
2022-08-22T10:58:56.364Z,82.22
2022-08-22T11:01:41.808Z,80.90
2022-08-22T11:04:28.080Z,77.43
2022-08-22T11:07:23.680Z,79.63
2022-08-22T11:10:05.404Z,78.49
2022-08-22T11:12:36.719Z,81.88
2022-08-22T11:15:43.643Z,81.12
2022-08-22T11:18:16.560Z,79.71
2022-08-22T11:21:01.887Z,76.37
2022-08-22T11:23:44.800Z,76.47
2022-08-22T11:26:13.565Z,75.12
2022-08-22T11:28:50.930Z,81.52
2022-08-22T11:31:27.570Z,78.52
2022-08-22T11:34:17.527Z,79.92
2022-08-22T11:36:50.318Z,79.25
2022-08-22T11:39:30.417Z,77.50
2022-08-22T11:42:09.239Z,74.55
2022-08-22T11:44:54.182Z,75.35
2022-08-22T11:47:27.146Z,76.24
2022-08-22T11:50:04.184Z,74.08
2022-08-22T11:52:51.767Z,75.50
2022-08-22T11:55:41.317Z,75.51
2022-08-22T11:58:30.216Z,74.49
2022-08-22T12:01:04.777Z,75.04
2022-08-22T12:03:44.093Z,75.27
2022-08-22T12:06:38.982Z,76.02
2022-08-22T12:09:47.911Z,75.06
2022-08-22T12:12:38.218Z,77.47
2022-08-22T12:15:33.300Z,74.43
2022-08-22T12:18:29.021Z,78.03
2022-08-22T12:21:29.867Z,79.11
2022-08-22T12:24:19.435Z,78.42
2022-08-22T12:27:09.971Z,72.87
2022-08-22T12:30:13.772Z,74.73
2022-08-22T12:33:10.007Z,78.78
2022-08-22T12:35:52.097Z,78.72
2022-08-22T12:38:37.333Z,72.67
2022-08-22T12:41:38.795Z,72.42
2022-08-22T12:44:36.934Z,70.10
2022-08-22T12:47:04.311Z,73.32
2022-08-22T12:50:01.872Z,70.21
2022-08-22T12:52:39.389Z,72.80
2022-08-22T12:55:24.862Z,72.29
2022-08-22T12:58:35.448Z,70.65
2022-08-22T13:01:06.680Z,68.72
2022-08-22T13:03:57.482Z,69.79
2022-08-22T13:06:36.320Z,67.48
2022-08-22T13:09:22.869Z,70.34
2022-08-22T13:12:00.090Z,70.13
2022-08-22T13:14:32.060Z,70.44
2022-08-22T13:17:13.497Z,69.25
2022-08-22T13:20:04.895Z,75.33
2022-08-22T13:22:35.152Z,73.84
2022-08-22T13:25:08.499Z,71.30
2022-08-22T13:28:03.427Z,73.36
2022-08-22T13:30:41.715Z,67.57
2022-08-22T13:33:16.784Z,73.18
2022-08-22T13:35:51.933Z,74.46
2022-08-22T13:38:48.326Z,74.32
2022-08-22T13:41:39.176Z,73.80
2022-08-22T13:44:17.188Z,74.95
2022-08-22T13:47:04.166Z,76.63
2022-08-22T13:49:37.465Z,76.16
2022-08-22T13:52:38.157Z,78.78
2022-08-22T13:55:22.669Z,82.83
2022-08-22T13:58:11.406Z,80.10
2022-08-22T14:00:57.967Z,80.40
2022-08-22T14:03:43.153Z,78.48
2022-08-22T14:06:38.178Z,80.63
2022-08-22T14:09:54.259Z,79.01
2022-08-22T14:12:56.712Z,75.99
2022-08-22T14:15:32.278Z,79.68
2022-08-22T14:18:30.526Z,73.78
2022-08-22T14:21:20.146Z,79.19
2022-08-22T14:23:51.544Z,76.95
2022-08-22T14:26:32.989Z,74.60
2022-08-22T14:29:12.162Z,74.11
2022-08-22T14:31:39.139Z,80.52
2022-08-22T14:34:12.343Z,76.36
2022-08-22T14:36:47.264Z,75.85
2022-08-22T14:39:47.807Z,75.32
2022-08-22T14:42:25.384Z,73.71
2022-08-22T14:45:11.392Z,73.76
2022-08-22T14:48:29.208Z,72.62
2022-08-22T14:50:50.389Z,76.45
2022-08-22T14:53:20.041Z,73.60
2022-08-22T14:56:29.994Z,79.63
2022-08-22T14:59:07.294Z,79.97
2022-08-22T15:01:50.923Z,77.55
2022-08-22T15:04:25.981Z,77.36
2022-08-22T15:06:57.856Z,76.43
2022-08-22T15:09:40.628Z,73.43
2022-08-22T15:12:21.527Z,80.23
2022-08-22T15:14:52.723Z,80.86
2022-08-22T15:17:39.252Z,75.91
2022-08-22T15:20:12.554Z,76.59
2022-08-22T15:22:41.632Z,77.55
2022-08-22T15:25:17.973Z,75.36
2022-08-22T15:27:58.208Z,75.85
2022-08-22T15:30:58.284Z,79.88
2022-08-22T15:33:29.343Z,82.03
2022-08-22T15:36:15.824Z,78.03
2022-08-22T15:38:46.899Z,79.20
2022-08-22T15:41:36.686Z,81.80
2022-08-22T15:44:32.441Z,80.96
2022-08-22T15:47:27.633Z,83.99
2022-08-22T15:49:58.995Z,79.84
2022-08-22T15:52:29.325Z,83.71
2022-08-22T15:54:57.079Z,82.03
2022-08-22T15:57:41.777Z,80.90
2022-08-22T16:00:43.376Z,84.15
2022-08-22T16:03:27.578Z,84.89
2022-08-22T16:06:00.485Z,84.69
2022-08-22T16:08:46.260Z,84.76
2022-08-22T16:11:18.314Z,85.63
2022-08-22T16:13:45.704Z,90.84
2022-08-22T16:16:51.229Z,92.11
2022-08-22T16:19:21.841Z,91.47
2022-08-22T16:21:57.126Z,90.98
2022-08-22T16:24:24.018Z,94.97
2022-08-22T16:26:51.589Z,95.35
2022-08-22T16:29:21.214Z,94.77
2022-08-22T16:31:48.099Z,91.56
2022-08-22T16:34:18.061Z,94.41
2022-08-22T16:36:50.050Z,93.08
2022-08-22T16:39:22.774Z,92.03
2022-08-22T16:42:19.722Z,91.51
2022-08-22T16:45:18.137Z,91.43
2022-08-22T16:48:02.450Z,89.81
2022-08-22T16:50:37.799Z,90.46
2022-08-22T16:53:33.706Z,89.15
2022-08-22T16:56:31.725Z,91.39
2022-08-22T16:59:14.218Z,93.46
2022-08-22T17:02:09.507Z,91.06
2022-08-22T17:04:43.124Z,89.20
2022-08-22T17:07:35.895Z,92.48
2022-08-22T17:10:29.551Z,89.83
2022-08-22T17:13:06.545Z,89.54
2022-08-22T17:15:55.257Z,87.60
2022-08-22T17:18:39.262Z,87.81
2022-08-22T17:21:13.472Z,91.10
2022-08-22T17:23:49.521Z,90.05
2022-08-22T17:26:48.563Z,90.56
2022-08-22T17:29:21.097Z,88.67
2022-08-22T17:31:53.782Z,87.58
2022-08-22T17:34:39.393Z,89.40
2022-08-22T17:37:38.330Z,89.67
2022-08-22T17:40:21.184Z,89.64
2022-08-22T17:43:05.712Z,86.22
2022-08-22T17:45:52.156Z,86.80
2022-08-22T17:48:25.962Z,88.57
2022-08-22T17:51:03.111Z,87.89
2022-08-22T17:53:41.147Z,85.63
2022-08-22T17:56:28.298Z,87.12
2022-08-22T17:59:06.291Z,89.49
2022-08-22T18:01:41.628Z,91.13
2022-08-22T18:04:17.250Z,90.39
2022-08-22T18:06:59.166Z,89.34
2022-08-22T18:09:40.011Z,91.03
2022-08-22T18:12:53.484Z,89.36
2022-08-22T18:15:44.073Z,92.48
2022-08-22T18:18:13.821Z,90.42
2022-08-22T18:21:08.292Z,89.88
2022-08-22T18:23:44.647Z,90.28
2022-08-22T18:26:24.509Z,87.44
2022-08-22T18:29:12.320Z,89.12
2022-08-22T18:32:00.722Z,89.48
2022-08-22T18:34:41.045Z,91.78
2022-08-22T18:37:19.613Z,87.91
2022-08-22T18:40:00.127Z,89.83
2022-08-22T18:42:32.213Z,86.38
2022-08-22T18:45:04.362Z,88.39
2022-08-22T18:47:33.632Z,87.55
2022-08-22T18:50:24.479Z,82.93
2022-08-22T18:52:51.829Z,82.63
2022-08-22T18:55:31.644Z,82.44
2022-08-22T18:58:02.661Z,84.75
2022-08-22T19:00:57.669Z,81.23
2022-08-22T19:03:36.225Z,79.92
2022-08-22T19:06:35.502Z,80.66
2022-08-22T19:09:21.339Z,78.92
2022-08-22T19:12:28.678Z,76.30
2022-08-22T19:15:15.584Z,73.67
2022-08-22T19:17:59.022Z,75.16
2022-08-22T19:20:50.771Z,75.82
2022-08-22T19:23:32.866Z,71.03
2022-08-22T19:26:24.710Z,75.82
2022-08-22T19:29:03.773Z,76.37
2022-08-22T19:31:44.336Z,74.90
2022-08-22T19:34:26.220Z,77.75
2022-08-22T19:37:30.681Z,78.74
2022-08-22T19:40:01.113Z,79.72
2022-08-22T19:42:34.426Z,81.98
2022-08-22T19:45:21.278Z,85.94
2022-08-22T19:47:58.140Z,82.65
2022-08-22T19:50:31.125Z,85.27
2022-08-22T19:53:10.589Z,78.31
2022-08-22T19:55:37.545Z,77.69
2022-08-22T19:58:33.268Z,78.67
2022-08-22T20:01:29.315Z,75.48
2022-08-22T20:04:20.707Z,75.53
2022-08-22T20:07:03.242Z,72.14
2022-08-22T20:09:53.620Z,69.26
2022-08-22T20:12:37.365Z,68.99
2022-08-22T20:15:22.588Z,68.62
2022-08-22T20:20:56.677Z,70.08
2022-08-22T20:23:28.812Z,68.55
2022-08-22T20:25:56.165Z,76.91
2022-08-22T20:28:45.466Z,75.15
2022-08-22T20:31:20.717Z,75.60
2022-08-22T20:33:53.477Z,77.96
2022-08-22T20:36:28.345Z,73.14
2022-08-22T20:39:06.812Z,72.71
2022-08-22T20:41:35.831Z,71.90
2022-08-22T20:44:18.584Z,71.41
2022-08-22T20:46:55.303Z,79.05
2022-08-22T20:49:41.186Z,74.34
2022-08-22T20:52:11.543Z,71.33
2022-08-22T20:54:40.804Z,74.17
2022-08-22T20:57:16.264Z,71.42
2022-08-22T20:59:56.794Z,74.10
2022-08-22T21:02:39.885Z,72.64
2022-08-22T21:05:21.408Z,73.66
2022-08-22T21:08:11.563Z,76.78
2022-08-22T21:10:58.436Z,76.39
2022-08-22T21:13:35.202Z,78.07
2022-08-22T21:16:18.488Z,74.37
2022-08-22T21:18:50.767Z,79.61
2022-08-22T21:21:18.122Z,78.38
2022-08-22T21:23:50.177Z,83.61
2022-08-22T21:26:29.938Z,80.86
2022-08-22T21:29:01.329Z,79.96
2022-08-22T21:31:34.248Z,76.88
2022-08-22T21:34:01.858Z,74.60
2022-08-22T21:36:30.629Z,76.30
2022-08-22T21:39:06.673Z,75.16
2022-08-22T21:41:48.098Z,76.25
2022-08-22T21:44:28.665Z,78.58
2022-08-22T21:46:56.270Z,76.57
2022-08-22T21:49:26.802Z,71.45
2022-08-22T21:51:53.830Z,73.55
2022-08-22T21:54:21.340Z,72.28
2022-08-22T21:56:50.557Z,74.63
2022-08-22T21:59:58.996Z,73.50
2022-08-22T22:02:39.692Z,72.01
2022-08-22T22:05:18.016Z,69.55
2022-08-22T22:07:47.204Z,69.94
2022-08-22T22:10:17.738Z,67.35
2022-08-22T22:12:46.980Z,67.11
2022-08-22T22:15:17.411Z,68.16
2022-08-22T22:17:44.488Z,66.33
2022-08-22T22:20:12.355Z,64.81
2022-08-22T22:22:46.105Z,64.86
2022-08-22T22:25:38.735Z,65.75
2022-08-22T22:28:06.104Z,66.23
2022-08-22T22:30:33.060Z,68.29
2022-08-22T22:33:00.099Z,68.85
2022-08-22T22:35:27.251Z,67.43
2022-08-22T22:37:56.159Z,70.15
2022-08-22T22:40:24.290Z,70.65
2022-08-22T22:42:51.348Z,67.51
2022-08-22T22:45:18.417Z,65.85
2022-08-22T22:47:45.365Z,66.93
2022-08-22T22:50:12.355Z,65.33
2022-08-22T22:52:40.843Z,65.42
2022-08-22T22:55:09.194Z,64.69
2022-08-22T22:57:42.749Z,62.80
2022-08-22T23:00:11.461Z,63.45
2022-08-22T23:02:38.488Z,65.33
2022-08-22T23:05:06.869Z,66.00
2022-08-22T23:07:34.060Z,67.43
2022-08-22T23:10:01.536Z,65.42
2022-08-22T23:12:29.269Z,65.25
2022-08-22T23:14:56.228Z,65.11
2022-08-22T23:17:23.232Z,63.96
2022-08-22T23:19:51.180Z,64.01
2022-08-22T23:22:18.759Z,67.45
2022-08-22T23:24:45.933Z,65.90
2022-08-22T23:27:13.023Z,68.16
2022-08-22T23:29:43.443Z,65.99
2022-08-22T23:32:11.930Z,63.35
2022-08-22T23:34:46.173Z,64.67
2022-08-22T23:37:17.976Z,65.15
2022-08-22T23:39:45.411Z,66.37
2022-08-22T23:42:13.474Z,68.01
2022-08-22T23:44:42.373Z,68.47
2022-08-22T23:47:10.021Z,68.08
2022-08-22T23:49:39.168Z,67.29
2022-08-22T23:52:07.059Z,65.06
2022-08-22T23:54:34.575Z,63.02
2022-08-22T23:57:03.120Z,65.87
2022-08-22T23:59:43.385Z,64.98
